sensor_id;sensor_type;location;lat;lon;timestamp;P1;durP1;ratioP1;P2;durP2;ratioP2
10473;SDS011;5284;50.446;7.904;2022-11-20T00:03:18;33.15;;;15.98;;
10473;SDS011;5284;50.446;7.904;2022-11-20T00:08:21;37.10;;;15.45;;
10473;SDS011;5284;50.446;7.904;2022-11-20T00:13:24;30.38;;;14.88;;
10473;SDS011;5284;50.446;7.904;2022-11-20T00:18:28;40.78;;;15.57;;
10473;SDS011;5284;50.446;7.904;2022-11-20T00:23:31;31.33;;;13.65;;
10473;SDS011;5284;50.446;7.904;2022-11-20T00:28:35;32.33;;;15.18;;
10473;SDS011;5284;50.446;7.904;2022-11-20T00:33:39;32.90;;;16.40;;
10473;SDS011;5284;50.446;7.904;2022-11-20T00:38:42;35.13;;;17.08;;
10473;SDS011;5284;50.446;7.904;2022-11-20T00:43:46;32.95;;;16.23;;
10473;SDS011;5284;50.446;7.904;2022-11-20T00:48:51;38.55;;;16.63;;
10473;SDS011;5284;50.446;7.904;2022-11-20T00:53:54;41.97;;;18.90;;
10473;SDS011;5284;50.446;7.904;2022-11-20T00:58:59;35.22;;;16.30;;
10473;SDS011;5284;50.446;7.904;2022-11-20T01:04:04;34.45;;;16.42;;
10473;SDS011;5284;50.446;7.904;2022-11-20T01:09:09;32.30;;;15.65;;
10473;SDS011;5284;50.446;7.904;2022-11-20T01:14:14;34.72;;;14.43;;
10473;SDS011;5284;50.446;7.904;2022-11-20T01:19:21;30.40;;;14.88;;
10473;SDS011;5284;50.446;7.904;2022-11-20T01:24:26;34.50;;;15.52;;
10473;SDS011;5284;50.446;7.904;2022-11-20T01:29:28;32.67;;;14.13;;
10473;SDS011;5284;50.446;7.904;2022-11-20T01:34:33;35.47;;;16.63;;
10473;SDS011;5284;50.446;7.904;2022-11-20T01:39:35;35.15;;;15.48;;
10473;SDS011;5284;50.446;7.904;2022-11-20T01:44:49;33.35;;;15.90;;
10473;SDS011;5284;50.446;7.904;2022-11-20T01:49:56;33.72;;;16.52;;
10473;SDS011;5284;50.446;7.904;2022-11-20T01:55:04;40.58;;;17.63;;
10473;SDS011;5284;50.446;7.904;2022-11-20T02:00:12;39.05;;;17.75;;
10473;SDS011;5284;50.446;7.904;2022-11-20T02:05:20;38.25;;;17.05;;
10473;SDS011;5284;50.446;7.904;2022-11-20T02:10:27;38.92;;;16.77;;
10473;SDS011;5284;50.446;7.904;2022-11-20T02:15:31;43.65;;;19.02;;
10473;SDS011;5284;50.446;7.904;2022-11-20T02:20:36;37.20;;;17.23;;
10473;SDS011;5284;50.446;7.904;2022-11-20T02:25:41;41.92;;;17.88;;
10473;SDS011;5284;50.446;7.904;2022-11-20T02:30:46;42.83;;;18.10;;
10473;SDS011;5284;50.446;7.904;2022-11-20T02:35:48;35.30;;;16.88;;
10473;SDS011;5284;50.446;7.904;2022-11-20T02:40:53;37.45;;;16.77;;
10473;SDS011;5284;50.446;7.904;2022-11-20T02:45:56;34.15;;;16.25;;
10473;SDS011;5284;50.446;7.904;2022-11-20T02:50:59;30.52;;;15.13;;
10473;SDS011;5284;50.446;7.904;2022-11-20T02:56:03;39.80;;;18.40;;
10473;SDS011;5284;50.446;7.904;2022-11-20T03:01:07;36.22;;;16.85;;
10473;SDS011;5284;50.446;7.904;2022-11-20T03:06:10;39.50;;;17.77;;
10473;SDS011;5284;50.446;7.904;2022-11-20T03:11:14;36.53;;;16.15;;
10473;SDS011;5284;50.446;7.904;2022-11-20T03:16:17;34.58;;;16.35;;
10473;SDS011;5284;50.446;7.904;2022-11-20T03:21:21;36.88;;;16.90;;
10473;SDS011;5284;50.446;7.904;2022-11-20T03:26:26;37.05;;;17.52;;
10473;SDS011;5284;50.446;7.904;2022-11-20T03:31:29;41.03;;;17.27;;
10473;SDS011;5284;50.446;7.904;2022-11-20T03:36:33;37.85;;;16.60;;
10473;SDS011;5284;50.446;7.904;2022-11-20T03:41:40;38.13;;;18.40;;
10473;SDS011;5284;50.446;7.904;2022-11-20T03:46:44;38.60;;;17.10;;
10473;SDS011;5284;50.446;7.904;2022-11-20T03:51:47;39.28;;;18.00;;
10473;SDS011;5284;50.446;7.904;2022-11-20T03:56:51;41.90;;;18.20;;
10473;SDS011;5284;50.446;7.904;2022-11-20T04:01:54;41.15;;;18.83;;
10473;SDS011;5284;50.446;7.904;2022-11-20T04:06:57;40.05;;;18.08;;
10473;SDS011;5284;50.446;7.904;2022-11-20T04:12:02;40.25;;;18.65;;
10473;SDS011;5284;50.446;7.904;2022-11-20T04:17:05;44.50;;;18.80;;
10473;SDS011;5284;50.446;7.904;2022-11-20T04:22:07;44.13;;;18.48;;
10473;SDS011;5284;50.446;7.904;2022-11-20T04:27:14;48.20;;;20.10;;
10473;SDS011;5284;50.446;7.904;2022-11-20T04:32:16;45.75;;;20.15;;
10473;SDS011;5284;50.446;7.904;2022-11-20T04:37:19;58.85;;;21.85;;
10473;SDS011;5284;50.446;7.904;2022-11-20T04:42:23;50.65;;;21.38;;
10473;SDS011;5284;50.446;7.904;2022-11-20T04:47:32;51.58;;;20.13;;
10473;SDS011;5284;50.446;7.904;2022-11-20T04:52:35;54.40;;;20.90;;
10473;SDS011;5284;50.446;7.904;2022-11-20T04:57:39;52.60;;;20.25;;
10473;SDS011;5284;50.446;7.904;2022-11-20T05:02:42;50.30;;;21.92;;
10473;SDS011;5284;50.446;7.904;2022-11-20T05:07:45;62.10;;;22.88;;
10473;SDS011;5284;50.446;7.904;2022-11-20T05:12:49;63.53;;;22.95;;
10473;SDS011;5284;50.446;7.904;2022-11-20T05:17:52;60.08;;;22.27;;
10473;SDS011;5284;50.446;7.904;2022-11-20T05:22:56;55.80;;;22.38;;
10473;SDS011;5284;50.446;7.904;2022-11-20T05:28:00;58.92;;;23.25;;
10473;SDS011;5284;50.446;7.904;2022-11-20T05:33:03;53.67;;;23.55;;
10473;SDS011;5284;50.446;7.904;2022-11-20T05:38:06;58.25;;;22.73;;
10473;SDS011;5284;50.446;7.904;2022-11-20T05:43:10;67.43;;;25.13;;
10473;SDS011;5284;50.446;7.904;2022-11-20T05:48:13;51.35;;;22.27;;
10473;SDS011;5284;50.446;7.904;2022-11-20T05:53:16;61.63;;;22.08;;
10473;SDS011;5284;50.446;7.904;2022-11-20T05:58:20;60.30;;;22.70;;
10473;SDS011;5284;50.446;7.904;2022-11-20T06:03:23;61.95;;;24.50;;
10473;SDS011;5284;50.446;7.904;2022-11-20T06:08:26;58.13;;;24.02;;
10473;SDS011;5284;50.446;7.904;2022-11-20T06:13:31;67.22;;;25.15;;
10473;SDS011;5284;50.446;7.904;2022-11-20T06:18:38;57.92;;;22.27;;
10473;SDS011;5284;50.446;7.904;2022-11-20T06:23:41;67.55;;;25.55;;
10473;SDS011;5284;50.446;7.904;2022-11-20T06:28:48;66.85;;;24.63;;
10473;SDS011;5284;50.446;7.904;2022-11-20T06:33:51;68.82;;;25.90;;
10473;SDS011;5284;50.446;7.904;2022-11-20T06:38:54;68.90;;;25.88;;
10473;SDS011;5284;50.446;7.904;2022-11-20T06:43:59;63.72;;;25.65;;
10473;SDS011;5284;50.446;7.904;2022-11-20T06:49:02;66.72;;;26.35;;
10473;SDS011;5284;50.446;7.904;2022-11-20T06:54:04;85.43;;;29.67;;
10473;SDS011;5284;50.446;7.904;2022-11-20T06:59:09;72.30;;;26.52;;
10473;SDS011;5284;50.446;7.904;2022-11-20T07:04:12;65.28;;;24.88;;
10473;SDS011;5284;50.446;7.904;2022-11-20T07:09:15;75.50;;;26.85;;
10473;SDS011;5284;50.446;7.904;2022-11-20T07:14:19;66.75;;;26.00;;
10473;SDS011;5284;50.446;7.904;2022-11-20T07:19:22;76.47;;;27.67;;
10473;SDS011;5284;50.446;7.904;2022-11-20T07:24:25;86.85;;;32.17;;
10473;SDS011;5284;50.446;7.904;2022-11-20T07:29:29;68.88;;;25.05;;
10473;SDS011;5284;50.446;7.904;2022-11-20T07:34:32;105.43;;;37.90;;
10473;SDS011;5284;50.446;7.904;2022-11-20T07:39:35;80.03;;;28.00;;
10473;SDS011;5284;50.446;7.904;2022-11-20T07:44:39;79.70;;;29.55;;
10473;SDS011;5284;50.446;7.904;2022-11-20T07:49:42;92.00;;;31.30;;
10473;SDS011;5284;50.446;7.904;2022-11-20T07:54:45;79.28;;;30.08;;
10473;SDS011;5284;50.446;7.904;2022-11-20T07:59:49;74.05;;;27.13;;
10473;SDS011;5284;50.446;7.904;2022-11-20T08:04:52;74.47;;;29.20;;
10473;SDS011;5284;50.446;7.904;2022-11-20T08:09:54;73.43;;;27.48;;
10473;SDS011;5284;50.446;7.904;2022-11-20T08:14:59;73.20;;;28.40;;
10473;SDS011;5284;50.446;7.904;2022-11-20T08:20:02;76.30;;;27.08;;
10473;SDS011;5284;50.446;7.904;2022-11-20T08:25:06;71.70;;;27.52;;
10473;SDS011;5284;50.446;7.904;2022-11-20T08:30:12;73.93;;;27.65;;
10473;SDS011;5284;50.446;7.904;2022-11-20T08:35:15;83.70;;;32.00;;
10473;SDS011;5284;50.446;7.904;2022-11-20T08:40:18;81.55;;;35.03;;
10473;SDS011;5284;50.446;7.904;2022-11-20T08:45:22;136.05;;;56.90;;
10473;SDS011;5284;50.446;7.904;2022-11-20T08:50:32;72.47;;;26.75;;
10473;SDS011;5284;50.446;7.904;2022-11-20T08:55:35;81.20;;;27.48;;
10473;SDS011;5284;50.446;7.904;2022-11-20T09:00:40;70.50;;;27.08;;
10473;SDS011;5284;50.446;7.904;2022-11-20T09:05:42;70.40;;;25.73;;
10473;SDS011;5284;50.446;7.904;2022-11-20T09:10:45;73.90;;;26.25;;
10473;SDS011;5284;50.446;7.904;2022-11-20T09:15:54;67.78;;;25.17;;
10473;SDS011;5284;50.446;7.904;2022-11-20T09:20:58;71.45;;;24.42;;
10473;SDS011;5284;50.446;7.904;2022-11-20T09:26:02;68.70;;;25.75;;
10473;SDS011;5284;50.446;7.904;2022-11-20T09:31:07;74.45;;;26.40;;
10473;SDS011;5284;50.446;7.904;2022-11-20T09:36:11;70.85;;;26.15;;
10473;SDS011;5284;50.446;7.904;2022-11-20T09:41:19;63.63;;;25.65;;
10473;SDS011;5284;50.446;7.904;2022-11-20T09:46:40;61.08;;;22.45;;
10473;SDS011;5284;50.446;7.904;2022-11-20T09:51:53;65.38;;;23.15;;
10473;SDS011;5284;50.446;7.904;2022-11-20T09:57:01;60.47;;;24.42;;
10473;SDS011;5284;50.446;7.904;2022-11-20T10:02:14;59.83;;;22.27;;
10473;SDS011;5284;50.446;7.904;2022-11-20T10:07:20;76.60;;;29.40;;
10473;SDS011;5284;50.446;7.904;2022-11-20T10:12:47;52.10;;;22.75;;
10473;SDS011;5284;50.446;7.904;2022-11-20T10:18:13;66.78;;;23.58;;
10473;SDS011;5284;50.446;7.904;2022-11-20T10:23:36;65.32;;;27.48;;
10473;SDS011;5284;50.446;7.904;2022-11-20T10:28:56;53.85;;;22.48;;
10473;SDS011;5284;50.446;7.904;2022-11-20T10:34:23;60.95;;;23.15;;
10473;SDS011;5284;50.446;7.904;2022-11-20T10:39:32;57.28;;;20.98;;
10473;SDS011;5284;50.446;7.904;2022-11-20T10:44:39;61.10;;;21.05;;
10473;SDS011;5284;50.446;7.904;2022-11-20T10:50:14;53.17;;;21.60;;
10473;SDS011;5284;50.446;7.904;2022-11-20T10:55:25;58.78;;;23.17;;
10473;SDS011;5284;50.446;7.904;2022-11-20T11:00:35;60.83;;;22.67;;
10473;SDS011;5284;50.446;7.904;2022-11-20T11:05:40;48.80;;;19.15;;
10473;SDS011;5284;50.446;7.904;2022-11-20T11:10:51;48.83;;;20.58;;
10473;SDS011;5284;50.446;7.904;2022-11-20T11:15:56;44.63;;;19.45;;
10473;SDS011;5284;50.446;7.904;2022-11-20T11:21:01;41.58;;;17.60;;
10473;SDS011;5284;50.446;7.904;2022-11-20T11:26:07;47.22;;;19.50;;
10473;SDS011;5284;50.446;7.904;2022-11-20T11:31:22;39.08;;;16.45;;
10473;SDS011;5284;50.446;7.904;2022-11-20T11:36:28;36.95;;;17.25;;
10473;SDS011;5284;50.446;7.904;2022-11-20T11:41:31;35.42;;;15.93;;
10473;SDS011;5284;50.446;7.904;2022-11-20T11:46:37;41.10;;;16.23;;
10473;SDS011;5284;50.446;7.904;2022-11-20T11:51:46;34.80;;;13.90;;
10473;SDS011;5284;50.446;7.904;2022-11-20T11:57:03;30.90;;;13.77;;
10473;SDS011;5284;50.446;7.904;2022-11-20T12:02:14;29.73;;;13.05;;
10473;SDS011;5284;50.446;7.904;2022-11-20T12:07:28;28.02;;;13.65;;
10473;SDS011;5284;50.446;7.904;2022-11-20T12:12:48;23.95;;;11.73;;
10473;SDS011;5284;50.446;7.904;2022-11-20T12:17:54;30.10;;;13.95;;
10473;SDS011;5284;50.446;7.904;2022-11-20T12:23:01;52.53;;;16.80;;
10473;SDS011;5284;50.446;7.904;2022-11-20T12:28:24;32.80;;;14.02;;
10473;SDS011;5284;50.446;7.904;2022-11-20T12:33:54;37.75;;;15.75;;
10473;SDS011;5284;50.446;7.904;2022-11-20T12:39:10;33.45;;;15.32;;
10473;SDS011;5284;50.446;7.904;2022-11-20T12:44:29;34.10;;;14.83;;
10473;SDS011;5284;50.446;7.904;2022-11-20T12:50:05;30.77;;;15.38;;
10473;SDS011;5284;50.446;7.904;2022-11-20T12:55:23;32.22;;;15.40;;
10473;SDS011;5284;50.446;7.904;2022-11-20T13:00:35;27.73;;;13.60;;
10473;SDS011;5284;50.446;7.904;2022-11-20T13:05:49;31.52;;;13.68;;
10473;SDS011;5284;50.446;7.904;2022-11-20T13:11:01;31.98;;;14.73;;
10473;SDS011;5284;50.446;7.904;2022-11-20T13:16:12;26.52;;;14.35;;
10473;SDS011;5284;50.446;7.904;2022-11-20T13:21:23;26.02;;;13.50;;
10473;SDS011;5284;50.446;7.904;2022-11-20T13:26:40;28.60;;;13.40;;
10473;SDS011;5284;50.446;7.904;2022-11-20T13:31:43;35.05;;;16.50;;
10473;SDS011;5284;50.446;7.904;2022-11-20T13:36:48;51.35;;;19.75;;
10473;SDS011;5284;50.446;7.904;2022-11-20T13:41:55;39.03;;;18.60;;
10473;SDS011;5284;50.446;7.904;2022-11-20T13:46:59;48.27;;;21.10;;
10473;SDS011;5284;50.446;7.904;2022-11-20T13:52:04;37.13;;;18.17;;
10473;SDS011;5284;50.446;7.904;2022-11-20T14:02:46;43.60;;;20.33;;
10473;SDS011;5284;50.446;7.904;2022-11-20T14:08:03;66.78;;;28.80;;
10473;SDS011;5284;50.446;7.904;2022-11-20T14:13:15;46.67;;;21.83;;
10473;SDS011;5284;50.446;7.904;2022-11-20T14:18:20;50.38;;;22.50;;
10473;SDS011;5284;50.446;7.904;2022-11-20T14:23:25;49.03;;;22.50;;
10473;SDS011;5284;50.446;7.904;2022-11-20T14:28:32;47.50;;;20.15;;
10473;SDS011;5284;50.446;7.904;2022-11-20T14:33:34;62.33;;;27.20;;
10473;SDS011;5284;50.446;7.904;2022-11-20T14:38:39;56.10;;;20.70;;
10473;SDS011;5284;50.446;7.904;2022-11-20T14:43:46;50.78;;;22.73;;
10473;SDS011;5284;50.446;7.904;2022-11-20T14:48:53;51.40;;;22.10;;
10473;SDS011;5284;50.446;7.904;2022-11-20T14:54:07;58.22;;;22.38;;
10473;SDS011;5284;50.446;7.904;2022-11-20T14:59:22;48.87;;;20.57;;
10473;SDS011;5284;50.446;7.904;2022-11-20T15:04:26;68.57;;;31.23;;
10473;SDS011;5284;50.446;7.904;2022-11-20T15:09:29;51.28;;;21.92;;
10473;SDS011;5284;50.446;7.904;2022-11-20T15:14:34;44.55;;;20.75;;
10473;SDS011;5284;50.446;7.904;2022-11-20T15:19:39;62.45;;;25.55;;
10473;SDS011;5284;50.446;7.904;2022-11-20T15:24:42;55.47;;;23.45;;
10473;SDS011;5284;50.446;7.904;2022-11-20T15:29:46;70.50;;;27.38;;
10473;SDS011;5284;50.446;7.904;2022-11-20T15:34:49;76.38;;;28.10;;
10473;SDS011;5284;50.446;7.904;2022-11-20T15:39:52;62.20;;;25.88;;
10473;SDS011;5284;50.446;7.904;2022-11-20T15:44:56;54.55;;;24.40;;
10473;SDS011;5284;50.446;7.904;2022-11-20T15:49:59;66.85;;;28.10;;
10473;SDS011;5284;50.446;7.904;2022-11-20T15:55:04;61.53;;;27.38;;
10473;SDS011;5284;50.446;7.904;2022-11-20T16:00:12;59.55;;;26.75;;
10473;SDS011;5284;50.446;7.904;2022-11-20T16:05:23;79.53;;;31.92;;
10473;SDS011;5284;50.446;7.904;2022-11-20T16:10:27;66.13;;;26.13;;
10473;SDS011;5284;50.446;7.904;2022-11-20T16:15:31;72.60;;;30.90;;
10473;SDS011;5284;50.446;7.904;2022-11-20T16:20:51;134.70;;;56.65;;
10473;SDS011;5284;50.446;7.904;2022-11-20T16:25:55;71.82;;;27.42;;
10473;SDS011;5284;50.446;7.904;2022-11-20T16:31:08;96.97;;;34.92;;
10473;SDS011;5284;50.446;7.904;2022-11-20T16:36:14;75.47;;;25.95;;
10473;SDS011;5284;50.446;7.904;2022-11-20T16:41:17;97.38;;;31.75;;
10473;SDS011;5284;50.446;7.904;2022-11-20T16:46:22;67.63;;;26.27;;
10473;SDS011;5284;50.446;7.904;2022-11-20T16:51:27;86.15;;;35.17;;
10473;SDS011;5284;50.446;7.904;2022-11-20T16:56:32;93.95;;;37.40;;
10473;SDS011;5284;50.446;7.904;2022-11-20T17:01:36;83.57;;;32.33;;
10473;SDS011;5284;50.446;7.904;2022-11-20T17:06:42;74.60;;;30.55;;
10473;SDS011;5284;50.446;7.904;2022-11-20T17:11:47;58.53;;;22.88;;
10473;SDS011;5284;50.446;7.904;2022-11-20T17:16:51;53.75;;;21.35;;
10473;SDS011;5284;50.446;7.904;2022-11-20T17:21:54;53.45;;;23.00;;
10473;SDS011;5284;50.446;7.904;2022-11-20T17:26:57;62.35;;;25.52;;
10473;SDS011;5284;50.446;7.904;2022-11-20T17:32:01;47.80;;;20.05;;
10473;SDS011;5284;50.446;7.904;2022-11-20T17:37:04;51.17;;;22.00;;
10473;SDS011;5284;50.446;7.904;2022-11-20T17:42:07;45.65;;;19.17;;
10473;SDS011;5284;50.446;7.904;2022-11-20T17:47:33;41.28;;;17.25;;
10473;SDS011;5284;50.446;7.904;2022-11-20T17:57:39;41.70;;;18.17;;
10473;SDS011;5284;50.446;7.904;2022-11-20T18:02:58;52.13;;;19.50;;
10473;SDS011;5284;50.446;7.904;2022-11-20T18:08:01;52.17;;;19.25;;
10473;SDS011;5284;50.446;7.904;2022-11-20T18:13:03;84.68;;;43.40;;
10473;SDS011;5284;50.446;7.904;2022-11-20T18:18:08;62.28;;;24.02;;
10473;SDS011;5284;50.446;7.904;2022-11-20T18:23:11;61.53;;;28.17;;
10473;SDS011;5284;50.446;7.904;2022-11-20T18:28:13;52.00;;;23.08;;
10473;SDS011;5284;50.446;7.904;2022-11-20T18:33:18;25.02;;;10.05;;
10473;SDS011;5284;50.446;7.904;2022-11-20T18:38:28;19.25;;;9.95;;
10473;SDS011;5284;50.446;7.904;2022-11-20T18:43:31;34.83;;;20.17;;
10473;SDS011;5284;50.446;7.904;2022-11-20T18:48:53;12.02;;;8.15;;
10473;SDS011;5284;50.446;7.904;2022-11-20T18:53:56;6.57;;;2.45;;
10473;SDS011;5284;50.446;7.904;2022-11-20T18:58:59;8.95;;;2.88;;
10473;SDS011;5284;50.446;7.904;2022-11-20T19:04:06;4.13;;;2.80;;
10473;SDS011;5284;50.446;7.904;2022-11-20T19:09:11;4.45;;;2.05;;
10473;SDS011;5284;50.446;7.904;2022-11-20T19:14:14;5.50;;;3.80;;
10473;SDS011;5284;50.446;7.904;2022-11-20T19:19:18;4.80;;;2.13;;
10473;SDS011;5284;50.446;7.904;2022-11-20T19:24:22;4.45;;;2.30;;
10473;SDS011;5284;50.446;7.904;2022-11-20T19:29:25;8.35;;;2.45;;
10473;SDS011;5284;50.446;7.904;2022-11-20T19:34:30;6.07;;;2.33;;
10473;SDS011;5284;50.446;7.904;2022-11-20T19:39:33;5.10;;;2.25;;
10473;SDS011;5284;50.446;7.904;2022-11-20T19:44:37;9.02;;;3.67;;
10473;SDS011;5284;50.446;7.904;2022-11-20T19:49:42;8.55;;;4.53;;
10473;SDS011;5284;50.446;7.904;2022-11-20T19:54:44;2.72;;;1.50;;
10473;SDS011;5284;50.446;7.904;2022-11-20T19:59:47;4.40;;;1.85;;
10473;SDS011;5284;50.446;7.904;2022-11-20T20:04:52;4.55;;;3.03;;
10473;SDS011;5284;50.446;7.904;2022-11-20T20:09:55;3.55;;;1.35;;
10473;SDS011;5284;50.446;7.904;2022-11-20T20:14:57;2.80;;;1.33;;
10473;SDS011;5284;50.446;7.904;2022-11-20T20:20:02;7.03;;;2.65;;
10473;SDS011;5284;50.446;7.904;2022-11-20T20:25:06;6.13;;;2.28;;
10473;SDS011;5284;50.446;7.904;2022-11-20T20:30:09;2.25;;;1.25;;
10473;SDS011;5284;50.446;7.904;2022-11-20T20:35:14;4.28;;;1.60;;
10473;SDS011;5284;50.446;7.904;2022-11-20T20:40:17;4.57;;;1.50;;
10473;SDS011;5284;50.446;7.904;2022-11-20T20:45:20;8.35;;;2.20;;
10473;SDS011;5284;50.446;7.904;2022-11-20T20:50:25;5.68;;;1.65;;
10473;SDS011;5284;50.446;7.904;2022-11-20T20:55:28;11.40;;;1.60;;
10473;SDS011;5284;50.446;7.904;2022-11-20T21:00:31;6.15;;;1.55;;
10473;SDS011;5284;50.446;7.904;2022-11-20T21:05:35;3.58;;;1.80;;
10473;SDS011;5284;50.446;7.904;2022-11-20T21:10:38;5.43;;;1.60;;
10473;SDS011;5284;50.446;7.904;2022-11-20T21:15:41;8.13;;;1.83;;
10473;SDS011;5284;50.446;7.904;2022-11-20T21:20:46;3.53;;;1.75;;
10473;SDS011;5284;50.446;7.904;2022-11-20T21:26:07;6.80;;;1.73;;
10473;SDS011;5284;50.446;7.904;2022-11-20T21:31:12;2.90;;;1.35;;
10473;SDS011;5284;50.446;7.904;2022-11-20T21:36:17;3.97;;;1.63;;
10473;SDS011;5284;50.446;7.904;2022-11-20T21:41:22;3.83;;;1.48;;
10473;SDS011;5284;50.446;7.904;2022-11-20T21:46:26;8.68;;;1.38;;
10473;SDS011;5284;50.446;7.904;2022-11-20T21:51:31;12.00;;;4.38;;
10473;SDS011;5284;50.446;7.904;2022-11-20T21:56:34;9.80;;;2.10;;
10473;SDS011;5284;50.446;7.904;2022-11-20T22:01:37;14.75;;;3.88;;
10473;SDS011;5284;50.446;7.904;2022-11-20T22:06:41;10.82;;;4.50;;
10473;SDS011;5284;50.446;7.904;2022-11-20T22:11:44;14.35;;;2.08;;
10473;SDS011;5284;50.446;7.904;2022-11-20T22:16:47;8.55;;;1.77;;
10473;SDS011;5284;50.446;7.904;2022-11-20T22:21:52;6.68;;;1.55;;
10473;SDS011;5284;50.446;7.904;2022-11-20T22:26:55;5.30;;;1.70;;
10473;SDS011;5284;50.446;7.904;2022-11-20T22:31:58;9.75;;;1.60;;
10473;SDS011;5284;50.446;7.904;2022-11-20T22:37:02;23.58;;;2.83;;
10473;SDS011;5284;50.446;7.904;2022-11-20T22:42:05;8.15;;;1.40;;
10473;SDS011;5284;50.446;7.904;2022-11-20T22:47:08;9.30;;;2.00;;
10473;SDS011;5284;50.446;7.904;2022-11-20T22:52:13;5.60;;;1.63;;
10473;SDS011;5284;50.446;7.904;2022-11-20T22:57:16;6.32;;;1.30;;
10473;SDS011;5284;50.446;7.904;2022-11-20T23:02:19;13.82;;;2.35;;
10473;SDS011;5284;50.446;7.904;2022-11-20T23:07:23;7.68;;;1.73;;
10473;SDS011;5284;50.446;7.904;2022-11-20T23:12:27;9.75;;;1.33;;
10473;SDS011;5284;50.446;7.904;2022-11-20T23:17:29;12.77;;;2.95;;
10473;SDS011;5284;50.446;7.904;2022-11-20T23:22:34;3.67;;;1.33;;
10473;SDS011;5284;50.446;7.904;2022-11-20T23:27:36;4.63;;;1.40;;
10473;SDS011;5284;50.446;7.904;2022-11-20T23:32:39;16.20;;;2.00;;
10473;SDS011;5284;50.446;7.904;2022-11-20T23:37:43;12.20;;;1.48;;
10473;SDS011;5284;50.446;7.904;2022-11-20T23:42:46;16.38;;;2.42;;
10473;SDS011;5284;50.446;7.904;2022-11-20T23:48:03;4.32;;;1.27;;
10473;SDS011;5284;50.446;7.904;2022-11-20T23:53:08;11.00;;;2.03;;
10473;SDS011;5284;50.446;7.904;2022-11-20T23:58:12;11.60;;;1.63;;
